createdAt,value
2022-08-30T00:01:05.881Z,22.00
2022-08-30T00:03:32.575Z,22.00
2022-08-30T00:06:00.139Z,22.00
2022-08-30T00:08:27.329Z,21.90
2022-08-30T00:10:54.145Z,21.80
2022-08-30T00:13:21.505Z,21.70
2022-08-30T00:15:48.742Z,21.70
2022-08-30T00:18:18.093Z,21.60
2022-08-30T00:20:45.829Z,21.60
2022-08-30T00:23:13.111Z,21.50
2022-08-30T00:25:39.846Z,21.40
2022-08-30T00:28:06.485Z,21.40
2022-08-30T00:30:33.215Z,21.30
2022-08-30T00:32:59.797Z,21.30
2022-08-30T00:35:26.496Z,21.30
2022-08-30T00:37:53.228Z,21.30
2022-08-30T00:40:27.302Z,21.30
2022-08-30T00:42:59.418Z,21.20
2022-08-30T00:45:35.429Z,21.20
2022-08-30T00:48:02.160Z,21.10
2022-08-30T00:50:31.003Z,21.00
2022-08-30T00:52:59.970Z,20.90
2022-08-30T00:55:28.026Z,20.90
2022-08-30T00:57:57.677Z,20.90
2022-08-30T01:00:24.474Z,20.90
2022-08-30T01:02:51.724Z,20.90
2022-08-30T01:05:20.160Z,21.00
2022-08-30T01:07:46.751Z,21.00
2022-08-30T01:10:14.853Z,21.00
2022-08-30T01:12:42.012Z,21.00
2022-08-30T01:15:10.157Z,20.90
2022-08-30T01:17:37.654Z,20.90
2022-08-30T01:20:33.752Z,20.90
2022-08-30T01:23:06.252Z,20.90
2022-08-30T01:25:34.985Z,20.80
2022-08-30T01:28:04.498Z,20.70
2022-08-30T01:30:31.709Z,20.60
2022-08-30T01:32:59.662Z,20.50
2022-08-30T01:35:27.337Z,20.40
2022-08-30T01:37:54.024Z,20.40
2022-08-30T01:40:20.792Z,20.30
2022-08-30T01:42:47.502Z,20.20
2022-08-30T01:45:14.179Z,20.00
2022-08-30T01:47:40.812Z,20.00
2022-08-30T01:50:07.796Z,20.00
2022-08-30T01:52:34.754Z,19.90
2022-08-30T01:55:01.979Z,19.80
2022-08-30T01:57:28.578Z,19.70
2022-08-30T01:59:55.372Z,19.70
2022-08-30T02:02:28.766Z,19.70
2022-08-30T02:04:56.714Z,19.60
2022-08-30T02:07:25.428Z,19.60
2022-08-30T02:09:53.347Z,19.50
2022-08-30T02:12:20.094Z,19.50
2022-08-30T02:14:46.926Z,19.40
2022-08-30T02:17:14.362Z,19.40
2022-08-30T02:19:41.232Z,19.30
2022-08-30T02:22:08.270Z,19.30
2022-08-30T02:24:35.712Z,19.30
2022-08-30T02:27:02.376Z,19.30
2022-08-30T02:29:29.614Z,19.30
2022-08-30T02:31:56.313Z,19.30
2022-08-30T02:34:23.086Z,19.20
2022-08-30T02:36:49.815Z,19.20
2022-08-30T02:39:16.595Z,19.20
2022-08-30T02:41:43.430Z,19.20
2022-08-30T02:44:10.853Z,19.10
2022-08-30T02:46:38.109Z,19.10
2022-08-30T02:49:23.794Z,19.10
2022-08-30T02:51:51.397Z,19.00
2022-08-30T02:54:20.086Z,19.00
2022-08-30T02:56:47.766Z,18.90
2022-08-30T02:59:15.185Z,18.90
2022-08-30T03:01:42.156Z,18.90
2022-08-30T03:04:09.538Z,18.90
2022-08-30T03:06:36.393Z,18.90
2022-08-30T03:09:03.491Z,18.90
2022-08-30T03:11:30.313Z,18.90
2022-08-30T03:13:56.918Z,18.80
2022-08-30T03:16:23.638Z,18.90
2022-08-30T03:18:50.294Z,18.80
2022-08-30T03:21:17.601Z,18.80
2022-08-30T03:23:44.966Z,18.90
2022-08-30T03:26:13.175Z,18.90
2022-08-30T03:28:39.709Z,18.90
2022-08-30T03:31:06.517Z,18.90
2022-08-30T03:33:33.107Z,18.80
2022-08-30T03:35:59.833Z,18.70
2022-08-30T03:38:26.451Z,18.70
2022-08-30T03:40:53.192Z,18.60
2022-08-30T03:43:19.914Z,18.60
2022-08-30T03:45:46.609Z,18.60
2022-08-30T03:48:13.195Z,18.50
2022-08-30T03:50:40.725Z,18.50
2022-08-30T03:53:07.770Z,18.40
2022-08-30T03:55:34.833Z,18.40
2022-08-30T03:58:01.400Z,18.40
2022-08-30T04:00:28.125Z,18.30
2022-08-30T04:02:59.022Z,18.30
2022-08-30T04:05:25.927Z,18.30
2022-08-30T04:07:52.752Z,18.20
2022-08-30T04:10:21.272Z,18.20
2022-08-30T04:12:49.847Z,18.20
2022-08-30T04:15:17.868Z,18.20
2022-08-30T04:17:44.723Z,18.20
2022-08-30T04:20:11.737Z,18.20
2022-08-30T04:22:38.381Z,18.10
2022-08-30T04:25:05.758Z,18.10
2022-08-30T04:27:32.605Z,18.20
2022-08-30T04:29:59.926Z,18.10
2022-08-30T04:32:26.847Z,18.10
2022-08-30T04:34:57.505Z,18.10
2022-08-30T04:37:24.229Z,18.10
2022-08-30T04:39:54.757Z,18.10
2022-08-30T04:42:21.555Z,18.10
2022-08-30T04:44:48.199Z,18.00
2022-08-30T04:47:14.765Z,18.10
2022-08-30T04:49:41.360Z,18.10
2022-08-30T04:52:09.065Z,18.10
2022-08-30T04:54:35.682Z,18.10
2022-08-30T04:57:02.317Z,18.10
2022-08-30T04:59:30.996Z,18.10
2022-08-30T05:01:57.624Z,18.10
2022-08-30T05:04:24.231Z,18.20
2022-08-30T05:06:50.934Z,18.20
2022-08-30T05:09:17.746Z,18.20
2022-08-30T05:11:44.916Z,18.30
2022-08-30T05:14:11.958Z,18.30
2022-08-30T05:16:39.234Z,18.40
2022-08-30T05:19:05.998Z,18.50
2022-08-30T05:21:32.668Z,18.60
2022-08-30T05:24:00.193Z,18.60
2022-08-30T05:26:28.124Z,18.70
2022-08-30T05:28:58.762Z,18.90
2022-08-30T05:31:27.255Z,18.90
2022-08-30T05:33:54.638Z,19.10
2022-08-30T05:36:23.741Z,19.40
2022-08-30T05:38:50.592Z,19.90
2022-08-30T05:41:18.488Z,20.20
2022-08-30T05:43:45.246Z,20.60
2022-08-30T05:46:13.624Z,21.00
2022-08-30T05:48:40.788Z,21.70
2022-08-30T05:51:12.460Z,22.00
2022-08-30T05:53:39.945Z,22.10
2022-08-30T05:56:08.593Z,22.00
2022-08-30T05:58:35.310Z,22.00
2022-08-30T06:01:02.243Z,22.10
2022-08-30T06:03:28.901Z,22.40
2022-08-30T06:05:55.507Z,22.80
2022-08-30T06:08:22.136Z,23.10
2022-08-30T06:10:48.882Z,23.40
2022-08-30T06:13:15.769Z,24.00
2022-08-30T06:15:45.020Z,24.50
2022-08-30T06:18:12.435Z,25.00
2022-08-30T06:20:43.150Z,25.30
2022-08-30T06:23:10.531Z,25.60
2022-08-30T06:25:41.379Z,25.70
2022-08-30T06:28:08.950Z,25.80
2022-08-30T06:30:35.880Z,25.90
2022-08-30T06:33:02.604Z,26.20
2022-08-30T06:35:30.679Z,26.60
2022-08-30T06:37:59.688Z,26.70
2022-08-30T06:40:26.438Z,26.70
2022-08-30T06:42:53.750Z,27.10
2022-08-30T06:45:20.561Z,27.30
2022-08-30T06:47:47.681Z,27.50
2022-08-30T06:50:15.181Z,27.90
2022-08-30T06:52:43.072Z,28.10
2022-08-30T06:55:14.709Z,27.70
2022-08-30T06:57:41.460Z,27.00
2022-08-30T07:00:08.995Z,26.20
2022-08-30T07:02:38.991Z,25.60
2022-08-30T07:05:06.688Z,25.10
2022-08-30T07:07:33.508Z,24.80
2022-08-30T07:10:02.020Z,24.60
2022-08-30T07:12:28.611Z,24.70
2022-08-30T07:14:55.179Z,25.40
2022-08-30T07:17:40.637Z,26.20
2022-08-30T07:20:07.492Z,27.10
2022-08-30T07:22:34.262Z,27.50
2022-08-30T07:25:00.884Z,27.90
2022-08-30T07:27:27.484Z,27.90
2022-08-30T07:29:54.216Z,27.90
2022-08-30T07:32:20.765Z,27.40
2022-08-30T07:34:47.495Z,27.30
2022-08-30T07:37:18.519Z,26.90
2022-08-30T07:39:47.838Z,26.60
2022-08-30T07:42:15.138Z,26.50
2022-08-30T07:44:41.897Z,26.50
2022-08-30T07:47:08.488Z,27.00
2022-08-30T07:49:35.160Z,27.80
2022-08-30T07:52:02.000Z,28.00
2022-08-30T07:54:28.798Z,28.00
2022-08-30T07:57:04.865Z,28.80
2022-08-30T07:59:36.065Z,29.70
2022-08-30T08:02:03.278Z,30.20
2022-08-30T08:04:29.982Z,30.20
2022-08-30T08:06:56.727Z,29.50
2022-08-30T08:09:23.274Z,29.50
2022-08-30T08:11:50.025Z,29.80
2022-08-30T08:14:16.808Z,30.40
2022-08-30T08:16:44.844Z,31.20
2022-08-30T08:19:12.424Z,31.50
2022-08-30T08:21:39.352Z,31.60
2022-08-30T08:24:06.639Z,31.80
2022-08-30T08:26:37.144Z,32.00
2022-08-30T08:29:04.539Z,31.90
2022-08-30T08:31:33.669Z,31.90
2022-08-30T08:36:33.332Z,31.50
2022-08-30T08:39:00.492Z,31.80
2022-08-30T08:41:36.568Z,31.80
2022-08-30T08:44:24.030Z,31.20
2022-08-30T08:47:09.574Z,30.90
2022-08-30T08:49:36.623Z,30.90
2022-08-30T08:52:22.623Z,30.30
2022-08-30T08:54:59.101Z,30.20
2022-08-30T08:57:26.806Z,30.50
2022-08-30T08:59:54.507Z,31.40
2022-08-30T09:02:25.841Z,31.80
2022-08-30T09:04:57.897Z,32.40
2022-08-30T09:07:26.245Z,33.10
2022-08-30T09:09:53.023Z,34.20
2022-08-30T09:12:21.120Z,35.20
2022-08-30T09:14:54.451Z,34.80
2022-08-30T09:17:23.030Z,34.80
2022-08-30T09:19:49.721Z,35.50
2022-08-30T09:22:17.402Z,36.70
2022-08-30T09:24:45.809Z,37.10
2022-08-30T09:27:34.454Z,37.50
2022-08-30T09:30:03.103Z,37.40
2022-08-30T09:32:35.496Z,37.50
2022-08-30T09:35:03.397Z,37.00
2022-08-30T09:37:35.918Z,37.50
2022-08-30T09:40:08.867Z,38.00
2022-08-30T09:42:35.499Z,37.70
2022-08-30T09:45:11.761Z,38.30
2022-08-30T09:47:43.138Z,37.90
2022-08-30T09:50:14.130Z,37.90
2022-08-30T09:52:59.165Z,38.20
2022-08-30T09:55:44.462Z,38.50
2022-08-30T09:58:11.243Z,38.50
2022-08-30T10:00:47.194Z,39.20
2022-08-30T10:03:30.235Z,39.50
2022-08-30T10:06:17.139Z,38.80
2022-08-30T10:08:52.232Z,38.10
2022-08-30T10:11:38.110Z,38.50
2022-08-30T10:14:10.783Z,38.70
2022-08-30T10:16:41.945Z,38.30
2022-08-30T10:19:16.495Z,39.00
2022-08-30T10:21:49.326Z,39.60
2022-08-30T10:24:20.953Z,40.30
2022-08-30T10:26:50.579Z,40.60
2022-08-30T10:29:23.594Z,40.50
2022-08-30T10:31:56.289Z,40.80
2022-08-30T10:34:36.030Z,40.70
2022-08-30T10:37:19.477Z,40.30
2022-08-30T10:39:50.913Z,40.00
2022-08-30T10:42:28.781Z,40.20
2022-08-30T10:44:59.998Z,40.80
2022-08-30T10:47:37.485Z,39.60
2022-08-30T10:50:16.504Z,39.10
2022-08-30T10:52:50.792Z,39.80
2022-08-30T10:55:22.147Z,39.30
2022-08-30T10:57:48.853Z,39.70
2022-08-30T11:00:22.507Z,40.50
2022-08-30T11:02:55.101Z,39.70
2022-08-30T11:05:45.182Z,39.10
2022-08-30T11:08:20.464Z,39.70
2022-08-30T11:11:00.327Z,40.70
2022-08-30T11:13:29.845Z,41.30
2022-08-30T11:15:59.412Z,41.00
2022-08-30T11:18:29.433Z,40.30
2022-08-30T11:21:16.296Z,40.70
2022-08-30T11:23:56.861Z,41.40
2022-08-30T11:26:42.306Z,41.80
2022-08-30T11:29:31.682Z,42.10
2022-08-30T11:32:18.675Z,41.20
2022-08-30T11:34:45.414Z,41.00
2022-08-30T11:37:33.686Z,41.10
2022-08-30T11:40:01.927Z,40.30
2022-08-30T11:42:42.101Z,39.90
2022-08-30T11:45:24.781Z,39.60
2022-08-30T11:48:04.594Z,39.70
2022-08-30T11:50:53.082Z,39.40
2022-08-30T11:53:38.638Z,39.90
2022-08-30T11:56:10.183Z,40.20
2022-08-30T11:58:51.567Z,40.00
2022-08-30T12:01:41.961Z,40.10
2022-08-30T12:04:15.386Z,40.00
2022-08-30T12:06:42.245Z,40.10
2022-08-30T12:09:33.208Z,40.50
2022-08-30T12:12:00.314Z,40.60
2022-08-30T12:14:47.977Z,40.10
2022-08-30T12:17:38.578Z,40.00
2022-08-30T12:20:11.418Z,39.90
2022-08-30T12:22:38.913Z,39.80
2022-08-30T12:25:14.297Z,40.20
2022-08-30T12:27:40.901Z,40.40
2022-08-30T12:30:08.298Z,40.20
2022-08-30T12:32:43.440Z,40.20
2022-08-30T12:35:18.760Z,39.70
2022-08-30T12:37:55.168Z,38.90
2022-08-30T12:40:24.142Z,38.70
2022-08-30T12:42:52.619Z,38.50
2022-08-30T12:45:23.429Z,38.60
2022-08-30T12:47:52.537Z,38.30
2022-08-30T12:50:21.233Z,38.00
2022-08-30T12:52:55.404Z,37.90
2022-08-30T12:55:24.351Z,37.80
2022-08-30T12:58:00.953Z,37.70
2022-08-30T13:00:27.695Z,38.00
2022-08-30T13:02:55.594Z,38.20
2022-08-30T13:05:32.046Z,38.20
2022-08-30T13:08:18.230Z,38.10
2022-08-30T13:10:54.453Z,37.40
2022-08-30T13:13:38.866Z,37.30
2022-08-30T13:16:08.707Z,37.00
2022-08-30T13:18:35.341Z,37.30
2022-08-30T13:21:11.101Z,37.20
2022-08-30T13:23:37.698Z,37.30
2022-08-30T13:26:06.590Z,37.30
2022-08-30T13:28:42.913Z,37.40
2022-08-30T13:31:09.848Z,37.60
2022-08-30T13:33:36.923Z,37.50
2022-08-30T13:36:03.714Z,37.70
2022-08-30T13:38:30.276Z,37.30
2022-08-30T13:40:57.129Z,37.30
2022-08-30T13:43:23.953Z,36.90
2022-08-30T13:45:50.681Z,36.80
2022-08-30T13:48:23.649Z,36.30
2022-08-30T13:50:51.905Z,35.80
2022-08-30T13:53:51.795Z,35.80
2022-08-30T13:56:05.622Z,35.80
2022-08-30T13:58:33.884Z,35.60
2022-08-30T14:01:00.656Z,35.20
2022-08-30T14:03:27.322Z,35.30
2022-08-30T14:06:21.950Z,35.00
2022-08-30T14:08:49.389Z,35.10
2022-08-30T14:11:21.203Z,35.00
2022-08-30T14:16:38.334Z,35.00
2022-08-30T14:19:05.929Z,35.00
2022-08-30T14:21:34.549Z,34.70
2022-08-30T14:24:01.210Z,34.70
2022-08-30T14:26:33.826Z,34.30
2022-08-30T14:29:01.777Z,34.00
2022-08-30T14:31:30.091Z,33.50
2022-08-30T14:33:59.705Z,33.10
2022-08-30T14:36:26.326Z,32.80
2022-08-30T14:38:53.285Z,32.50
2022-08-30T14:41:19.936Z,32.20
2022-08-30T14:43:46.871Z,31.90
2022-08-30T14:46:13.771Z,31.70
2022-08-30T14:48:41.630Z,31.40
2022-08-30T14:51:14.736Z,31.30
2022-08-30T14:53:41.479Z,31.20
2022-08-30T14:56:12.520Z,31.20
2022-08-30T14:58:39.347Z,31.30
2022-08-30T15:01:07.106Z,31.10
2022-08-30T15:03:33.743Z,30.90
2022-08-30T15:06:01.076Z,30.80
2022-08-30T15:08:27.925Z,30.90
2022-08-30T15:10:54.894Z,30.90
2022-08-30T15:13:21.843Z,30.90
2022-08-30T15:15:49.751Z,30.80
2022-08-30T15:18:17.398Z,30.90
2022-08-30T15:20:46.894Z,30.80
2022-08-30T15:23:13.922Z,30.90
2022-08-30T15:25:43.710Z,30.80
2022-08-30T15:28:10.391Z,30.70
2022-08-30T15:30:37.423Z,30.70
2022-08-30T15:33:04.034Z,30.50
2022-08-30T15:35:30.778Z,30.40
2022-08-30T15:37:57.965Z,30.30
2022-08-30T15:40:24.691Z,30.20
2022-08-30T15:42:53.067Z,30.20
2022-08-30T15:45:20.046Z,30.10
2022-08-30T15:47:46.772Z,30.00
2022-08-30T15:50:16.031Z,29.90
2022-08-30T15:52:43.210Z,29.70
2022-08-30T15:55:09.836Z,29.60
2022-08-30T15:57:36.446Z,29.30
2022-08-30T16:00:05.912Z,29.10
2022-08-30T16:02:33.334Z,29.00
2022-08-30T16:05:01.851Z,28.90
2022-08-30T16:07:28.622Z,28.90
2022-08-30T16:09:55.471Z,28.80
2022-08-30T16:12:23.776Z,28.70
2022-08-30T16:14:51.077Z,28.60
2022-08-30T16:17:18.134Z,28.50
2022-08-30T16:19:44.985Z,28.50
2022-08-30T16:22:11.845Z,28.40
2022-08-30T16:24:38.580Z,28.40
2022-08-30T16:27:06.003Z,28.40
2022-08-30T16:29:35.484Z,28.40
2022-08-30T16:32:02.170Z,28.40
2022-08-30T16:34:28.809Z,28.40
2022-08-30T16:36:55.401Z,28.20
2022-08-30T16:39:22.319Z,28.20
2022-08-30T16:41:49.012Z,28.20
2022-08-30T16:44:17.900Z,28.10
2022-08-30T16:46:53.337Z,28.10
2022-08-30T16:49:22.603Z,28.00
2022-08-30T16:51:49.744Z,28.00
2022-08-30T16:54:17.802Z,27.90
2022-08-30T16:56:45.732Z,27.90
2022-08-30T16:59:13.275Z,28.00
2022-08-30T17:01:42.043Z,28.00
2022-08-30T17:04:10.303Z,27.90
2022-08-30T17:06:37.058Z,27.90
2022-08-30T17:09:04.936Z,27.90
2022-08-30T17:11:32.121Z,27.90
2022-08-30T17:13:58.694Z,27.80
2022-08-30T17:16:27.986Z,27.80
2022-08-30T17:18:55.912Z,27.80
2022-08-30T17:21:26.376Z,27.70
2022-08-30T17:23:53.036Z,27.60
2022-08-30T17:26:20.330Z,27.60
2022-08-30T17:28:46.952Z,27.50
2022-08-30T17:31:14.927Z,27.50
2022-08-30T17:33:43.217Z,27.50
2022-08-30T17:36:12.722Z,27.40
2022-08-30T17:38:44.740Z,27.40
2022-08-30T17:41:11.937Z,27.40
2022-08-30T17:43:38.587Z,27.30
2022-08-30T17:46:12.798Z,27.30
2022-08-30T17:48:39.742Z,27.20
2022-08-30T17:51:07.255Z,27.10
2022-08-30T17:53:34.810Z,27.10
2022-08-30T17:56:01.479Z,27.00
2022-08-30T17:58:28.156Z,27.00
2022-08-30T18:01:14.737Z,26.90
2022-08-30T18:03:42.194Z,26.80
2022-08-30T18:06:12.834Z,26.80
2022-08-30T18:08:39.535Z,26.80
2022-08-30T18:11:06.341Z,26.70
2022-08-30T18:13:33.076Z,26.70
2022-08-30T18:16:01.368Z,26.70
2022-08-30T18:18:28.503Z,26.70
2022-08-30T18:20:55.297Z,26.60
2022-08-30T18:23:24.214Z,26.60
2022-08-30T18:26:02.165Z,26.50
2022-08-30T18:28:29.240Z,26.50
2022-08-30T18:30:57.126Z,26.40
2022-08-30T18:33:24.925Z,26.40
2022-08-30T18:35:52.396Z,26.30
2022-08-30T18:38:19.732Z,26.30
2022-08-30T18:40:51.188Z,26.20
2022-08-30T18:43:18.123Z,26.20
2022-08-30T18:46:27.067Z,26.20
2022-08-30T18:48:54.538Z,26.10
2022-08-30T18:51:21.630Z,26.00
2022-08-30T18:53:49.149Z,26.00
2022-08-30T18:56:16.668Z,26.00
2022-08-30T19:01:30.640Z,26.00
2022-08-30T19:03:58.646Z,26.00
2022-08-30T19:06:25.444Z,25.90
2022-08-30T19:08:52.212Z,25.90
2022-08-30T19:11:18.815Z,25.90
2022-08-30T19:13:45.784Z,25.80
2022-08-30T19:16:13.321Z,25.80
2022-08-30T19:18:40.849Z,25.80
2022-08-30T19:21:13.486Z,25.80
2022-08-30T19:23:40.586Z,25.70
2022-08-30T19:26:07.280Z,25.70
2022-08-30T19:28:37.768Z,25.70
2022-08-30T19:31:06.456Z,25.70
2022-08-30T19:33:33.468Z,25.70
2022-08-30T19:36:00.313Z,25.80
2022-08-30T19:38:27.200Z,25.70
2022-08-30T19:40:58.069Z,25.80
2022-08-30T19:43:24.821Z,25.80
2022-08-30T19:46:00.524Z,25.80
2022-08-30T19:48:32.089Z,25.80
2022-08-30T19:51:00.209Z,25.80
2022-08-30T19:53:27.109Z,25.70
2022-08-30T19:55:54.511Z,25.70
2022-08-30T19:58:21.479Z,25.60
2022-08-30T20:00:56.099Z,25.70
2022-08-30T20:03:27.845Z,25.60
2022-08-30T20:05:54.844Z,25.60
2022-08-30T20:08:21.983Z,25.60
2022-08-30T20:10:48.829Z,25.60
2022-08-30T20:13:15.526Z,25.50
2022-08-30T20:15:42.237Z,25.50
2022-08-30T20:18:13.575Z,25.50
2022-08-30T20:20:49.637Z,25.50
2022-08-30T20:23:16.872Z,25.50
2022-08-30T20:24:29.857Z,25.90
2022-08-30T20:25:50.694Z,25.50
2022-08-30T20:28:17.978Z,25.50
2022-08-30T20:30:44.768Z,25.40
2022-08-30T20:33:11.510Z,25.40
2022-08-30T20:35:38.983Z,25.40
2022-08-30T20:38:06.529Z,25.40
2022-08-30T20:40:34.966Z,25.30
2022-08-30T20:43:02.176Z,25.30
2022-08-30T20:45:31.039Z,25.30
2022-08-30T20:47:57.878Z,25.30
2022-08-30T20:50:24.463Z,25.20
2022-08-30T20:52:51.456Z,25.20
2022-08-30T20:55:18.458Z,25.20
2022-08-30T20:57:45.063Z,25.20
2022-08-30T21:00:13.711Z,25.10
2022-08-30T21:02:46.382Z,25.20
2022-08-30T21:05:15.425Z,25.20
2022-08-30T21:07:42.520Z,25.10
2022-08-30T21:10:09.529Z,25.10
2022-08-30T21:12:36.159Z,25.10
2022-08-30T21:15:15.587Z,25.00
2022-08-30T21:17:49.511Z,25.00
2022-08-30T21:20:16.187Z,25.00
2022-08-30T21:22:42.758Z,24.90
2022-08-30T21:25:09.772Z,24.80
2022-08-30T21:27:36.410Z,24.80
2022-08-30T21:30:03.165Z,24.80
2022-08-30T21:32:29.750Z,24.80
2022-08-30T21:35:28.763Z,24.80
2022-08-30T21:37:55.385Z,24.80
2022-08-30T21:40:22.143Z,24.80
2022-08-30T21:42:48.931Z,24.80
2022-08-30T21:45:15.581Z,24.80
2022-08-30T21:47:42.352Z,24.80
2022-08-30T21:50:09.371Z,24.80
2022-08-30T21:52:36.205Z,24.80
2022-08-30T21:55:03.164Z,24.70
2022-08-30T21:57:29.949Z,24.70
2022-08-30T21:59:56.575Z,24.70
2022-08-30T22:02:23.417Z,24.70
2022-08-30T22:04:50.168Z,24.70
2022-08-30T22:07:16.757Z,24.70
2022-08-30T22:09:46.581Z,24.70
2022-08-30T22:12:13.208Z,24.70
2022-08-30T22:14:40.736Z,24.60
2022-08-30T22:17:07.533Z,24.60
2022-08-30T22:19:34.230Z,24.60
2022-08-30T22:22:01.772Z,24.60
2022-08-30T22:24:29.396Z,24.60
2022-08-30T22:27:00.181Z,24.50
2022-08-30T22:29:26.949Z,24.50
2022-08-30T22:31:54.423Z,24.50
2022-08-30T22:34:21.125Z,24.50
2022-08-30T22:36:47.805Z,24.50
2022-08-30T22:39:14.401Z,24.50
2022-08-30T22:41:42.821Z,24.50
2022-08-30T22:44:10.004Z,24.50
2022-08-30T22:46:36.830Z,24.50
2022-08-30T22:49:05.042Z,24.50
2022-08-30T22:51:31.754Z,24.40
2022-08-30T22:53:58.333Z,24.40
2022-08-30T22:56:25.687Z,24.40
2022-08-30T22:58:52.740Z,24.40
2022-08-30T23:01:21.083Z,24.30
2022-08-30T23:03:47.905Z,24.30
2022-08-30T23:06:14.584Z,24.30
2022-08-30T23:08:41.198Z,24.30
2022-08-30T23:11:07.988Z,24.20
2022-08-30T23:13:34.748Z,24.20
2022-08-30T23:16:04.980Z,24.20
2022-08-30T23:18:32.978Z,24.10
2022-08-30T23:21:10.880Z,24.00
2022-08-30T23:23:56.705Z,24.00
2022-08-30T23:26:42.167Z,23.90
2022-08-30T23:29:27.647Z,23.90
2022-08-30T23:32:12.955Z,23.80
2022-08-30T23:34:58.232Z,23.80
2022-08-30T23:37:43.553Z,23.80
2022-08-30T23:40:29.511Z,23.70
2022-08-30T23:43:14.919Z,23.70
2022-08-30T23:46:00.458Z,23.60
2022-08-30T23:48:50.866Z,23.60
2022-08-30T23:51:37.706Z,23.50
2022-08-30T23:54:23.805Z,23.60
2022-08-30T23:57:09.002Z,23.70
2022-08-30T23:59:54.329Z,23.70
